Davie, FL (33331)

9:50 AM EST on January 29, 2015 (GMT -0500)
Weston-Emerald Estates | Change Station
CLOSE
Current Station
Personal Weather Station
Location: Fort Lauderdale, FL
Elevation: 16 ft
Nearby Weather Stations

Elev 16 ft 26.07 °N, 80.37 °W | Updated 8 seconds ago

Partly Cloudy
Partly Cloudy
62.8 °F
Feels Like 62.8 °F
N
1.1
Wind Variable Wind from WSW
Gusts 2.9 mph

Today
High -- | Low -- °F
--% Chance of Precip.
Yesterday
High -- | Low -- °F
Precip. -- in
7:07 AM 6:02 PM
Waxing Gibbous, 75% visible
Pressure 30.26 in
Visibility 10.0 miles
Clouds Scattered Clouds 4500 ft
Dew Point 55 °F
Humidity 77%
Rainfall 0.02 in
Snow Depth Not available.
UV 1 out of 12
Pollen 7.20 out of 12
Air Quality Not available.
Flu Activity Not available.
METAR KOPF 291353Z 36005KT 10SM SCT045 15/10 A3025 RMK AO2 SLP246 T01500100 $

More Conditions Fewer Conditions

Pressure 30.26 in
Visibility 10.0 miles
Clouds Scattered Clouds 4500 ft
Dew Point 55 °F
Humidity 77%
Rainfall 0.02 in
Snow Depth Not available.
UV 1 out of 12
Pollen 7.20 out of 12
Air Quality Not available.
Flu Activity Not available.
METAR KOPF 291353Z 36005KT 10SM SCT045 15/10 A3025 RMK AO2 SLP246 T01500100 $

More Conditions Fewer Conditions

10-Day Weather Forecast

Almanac

Astronomy

Jan. 29, 2015 Rise Set
Actual Time
Civil Twilight
Nautical Twilight
Astronomical Twilight
Moon
Length of Visible Light
Length of Day
Tomorrow will be .
, % of the Moon is Illuminated

Today's Extremes

State Highs State Lows

Community

WunderPhotos

Upload Photos

1,791,443 photos uploaded!

WunderBlogs® & News

Nearby

Air Quality

  Air Quality AQ Index Pollutant
Not available.

Snow Depth

Station Depth Elevation

Earthquake Activity

City Distance Mag. Time & Date
Minimum magnitude displayed is 2.5.

Coastal Water Temperatures

Place Temperature

Nearby Weather Stations